< < Back
Terminal Aerodrome Forecast


Current Version              Previous Versions:   1  2  3  4  5  6  7  8  9  

Terminal Aerodrome Forecast

394
FTUS42 KTAE 291120
TAFTLH
TAF
KTLH 291120Z 2912/3012 00000KT P6SM FEW050
     FM291500 24006KT P6SM SCT050=

Latest METAR

662
SAUS80 KWBC 301100 RRA
MTRTLH
METAR KTLH 301053Z 00000KT 10SM BCFG FEW030 FEW250 24/23 A3003 RMK AO2
SLP168 TCU DSNT SE-SW T02440233 $


USA.gov is the U.S. government's official web portal to all federal, state and local government web resources and services.